createdAt,value
2022-10-12T00:01:44.864Z,58.80
2022-10-12T00:05:06.032Z,61.80
2022-10-12T00:08:46.327Z,62.70
2022-10-12T00:12:21.169Z,53.80
2022-10-12T00:16:19.083Z,59.20
2022-10-12T00:19:59.181Z,59.40
2022-10-12T00:23:19.969Z,54.10
2022-10-12T00:26:57.839Z,56.40
2022-10-12T00:30:39.300Z,52.70
2022-10-12T00:34:13.121Z,54.60
2022-10-12T00:37:55.005Z,53.60
2022-10-12T00:41:32.924Z,56.00
2022-10-12T00:45:26.554Z,64.10
2022-10-12T00:48:54.110Z,54.20
2022-10-12T00:52:31.652Z,55.60
2022-10-12T00:56:07.137Z,72.60
2022-10-12T00:59:52.872Z,57.00
2022-10-12T01:03:22.347Z,47.00
2022-10-12T01:07:14.723Z,48.50
2022-10-12T01:10:35.776Z,56.70
2022-10-12T01:14:32.345Z,57.90
2022-10-12T01:18:16.206Z,59.60
2022-10-12T01:22:02.714Z,58.90
2022-10-12T01:25:41.936Z,54.90
2022-10-12T01:29:15.969Z,64.60
2022-10-12T01:33:15.725Z,63.10
2022-10-12T01:37:15.276Z,55.90
2022-10-12T01:40:42.329Z,52.40
2022-10-12T01:44:32.444Z,55.40
2022-10-12T01:48:17.041Z,60.20
2022-10-12T01:52:21.346Z,62.10
2022-10-12T01:55:56.261Z,52.20
2022-10-12T01:59:37.365Z,53.80
2022-10-12T02:03:17.966Z,44.80
2022-10-12T02:06:46.230Z,51.20
2022-10-12T02:10:26.613Z,61.40
2022-10-12T02:14:00.286Z,47.00
2022-10-12T02:17:35.011Z,49.30
2022-10-12T02:21:15.990Z,49.70
2022-10-12T02:24:52.785Z,45.00
2022-10-12T02:28:30.017Z,40.60
2022-10-12T02:32:37.550Z,40.30
2022-10-12T02:36:16.921Z,43.90
2022-10-12T02:39:47.984Z,38.70
2022-10-12T02:43:44.043Z,34.50
2022-10-12T02:47:08.544Z,43.30
2022-10-12T02:51:02.930Z,41.80
2022-10-12T02:54:24.435Z,41.10
2022-10-12T02:58:01.871Z,43.50
2022-10-12T03:01:39.700Z,37.10
2022-10-12T03:05:17.334Z,41.30
2022-10-12T03:08:57.223Z,36.60
2022-10-12T03:12:32.592Z,41.30
2022-10-12T03:16:29.397Z,48.20
2022-10-12T03:20:09.767Z,31.10
2022-10-12T03:23:49.207Z,45.30
2022-10-12T03:27:09.943Z,39.70
2022-10-12T03:31:06.562Z,54.90
2022-10-12T03:34:46.284Z,47.40
2022-10-12T03:38:25.760Z,50.20
2022-10-12T03:41:46.803Z,58.30
2022-10-12T03:45:43.410Z,66.60
2022-10-12T03:49:04.599Z,65.20
2022-10-12T03:52:42.212Z,64.80
2022-10-12T03:56:38.704Z,66.40
2022-10-12T04:00:18.749Z,65.70
2022-10-12T04:03:58.166Z,58.20
2022-10-12T04:07:19.331Z,61.40
2022-10-12T04:10:56.658Z,59.20
2022-10-12T04:14:53.069Z,72.60
2022-10-12T04:18:13.693Z,69.30
2022-10-12T04:21:51.277Z,61.80
2022-10-12T04:25:30.265Z,55.70
2022-10-12T04:29:06.567Z,53.70
2022-10-12T04:33:03.370Z,44.70
2022-10-12T04:36:24.848Z,42.00
2022-10-12T04:40:02.119Z,42.20
2022-10-12T04:43:39.470Z,45.00
2022-10-12T04:47:17.242Z,37.90
2022-10-12T04:50:54.763Z,45.10
2022-10-12T04:54:33.030Z,49.00
2022-10-12T04:58:10.263Z,35.70
2022-10-12T05:01:47.939Z,33.10
2022-10-12T05:05:44.872Z,42.80
2022-10-12T05:09:24.335Z,43.00
2022-10-12T05:12:44.858Z,59.80
2022-10-12T05:16:22.558Z,54.10
2022-10-12T05:20:19.019Z,38.10
2022-10-12T05:23:59.009Z,36.80
2022-10-12T05:27:19.877Z,39.40
2022-10-12T05:31:16.294Z,38.20
2022-10-12T05:34:37.458Z,43.60
2022-10-12T05:38:15.171Z,34.50
2022-10-12T05:42:11.827Z,42.30
2022-10-12T05:45:51.487Z,45.40
2022-10-12T05:49:12.028Z,34.50
2022-10-12T05:52:49.616Z,43.30
2022-10-12T05:56:27.343Z,41.50
2022-10-12T06:00:23.703Z,40.40
2022-10-12T06:03:44.143Z,36.60
2022-10-12T06:07:21.918Z,32.30
2022-10-12T06:11:18.417Z,32.90
2022-10-12T06:14:39.513Z,42.90
2022-10-12T06:18:18.348Z,61.60
2022-10-12T06:21:54.971Z,67.20
2022-10-12T06:25:52.056Z,55.80
2022-10-12T06:29:12.901Z,42.50
2022-10-12T06:32:50.488Z,41.60
2022-10-12T06:36:28.179Z,37.20
2022-10-12T06:40:06.612Z,38.30
2022-10-12T06:43:43.670Z,39.60
2022-10-12T06:47:21.362Z,52.10
2022-10-12T06:51:18.250Z,41.30
2022-10-12T06:54:38.841Z,62.10
2022-10-12T06:58:35.592Z,45.30
2022-10-12T07:02:15.593Z,53.00
2022-10-12T07:05:36.571Z,47.80
2022-10-12T07:09:14.499Z,56.30
2022-10-12T07:13:10.588Z,100.20
2022-10-12T07:16:31.243Z,86.80
2022-10-12T07:20:09.035Z,68.60
2022-10-12T07:24:05.906Z,117.30
2022-10-12T07:27:29.649Z,69.80
2022-10-12T07:31:26.609Z,64.80
2022-10-12T07:34:47.499Z,117.50
2022-10-12T07:38:25.123Z,70.50
2022-10-12T07:42:02.999Z,60.60
2022-10-12T07:45:41.454Z,52.60
2022-10-12T07:49:37.011Z,52.80
2022-10-12T07:53:00.563Z,38.30
2022-10-12T07:56:35.955Z,35.50
2022-10-12T08:00:13.668Z,42.80
2022-10-12T08:03:51.109Z,47.10
2022-10-12T08:07:28.383Z,45.90
2022-10-12T08:11:07.209Z,39.90
2022-10-12T08:14:43.694Z,39.90
2022-10-12T08:18:21.362Z,25.10
2022-10-12T08:21:59.207Z,27.20
2022-10-12T08:25:38.116Z,30.50
2022-10-12T08:29:14.509Z,19.20
2022-10-12T08:32:52.046Z,12.80
2022-10-12T08:36:30.543Z,11.30
2022-10-12T08:40:31.448Z,12.70
2022-10-12T08:44:17.073Z,10.90
2022-10-12T08:47:42.996Z,14.90
2022-10-12T08:51:22.761Z,8.30
2022-10-12T08:54:55.110Z,11.50
2022-10-12T08:58:51.825Z,11.80
2022-10-12T09:02:44.430Z,12.80
2022-10-12T09:06:19.707Z,20.80
2022-10-12T09:09:48.957Z,9.00
2022-10-12T09:13:47.473Z,12.50
2022-10-12T09:17:22.228Z,15.80
2022-10-12T09:20:49.367Z,15.10
2022-10-12T09:24:27.147Z,14.20
2022-10-12T09:28:25.682Z,18.50
2022-10-12T09:32:18.690Z,19.30
2022-10-12T09:36:02.820Z,17.30
2022-10-12T09:39:32.958Z,13.10
2022-10-12T09:43:20.238Z,36.60
2022-10-12T09:46:45.736Z,12.80
2022-10-12T09:50:40.216Z,16.10
2022-10-12T09:54:03.973Z,11.50
2022-10-12T09:57:42.271Z,8.60
2022-10-12T10:01:21.839Z,8.50
2022-10-12T10:04:55.589Z,7.30
2022-10-12T10:08:51.531Z,9.30
2022-10-12T10:12:27.367Z,6.70
2022-10-12T10:15:52.310Z,8.40
2022-10-12T10:19:57.532Z,7.40
2022-10-12T10:23:42.431Z,6.60
2022-10-12T10:27:06.161Z,9.50
2022-10-12T10:30:42.421Z,6.00
2022-10-12T10:34:22.814Z,7.40
2022-10-12T10:37:59.368Z,7.10
2022-10-12T10:41:43.233Z,5.70
2022-10-12T10:45:26.545Z,6.10
2022-10-12T10:49:34.983Z,6.40
2022-10-12T10:53:26.638Z,4.90
2022-10-12T10:56:50.619Z,5.90
2022-10-12T11:00:41.257Z,6.20
2022-10-12T11:04:19.440Z,4.10
2022-10-12T11:08:04.736Z,4.20
2022-10-12T11:11:53.404Z,3.60
2022-10-12T11:15:42.450Z,4.30
2022-10-12T11:19:20.579Z,2.30
2022-10-12T11:22:53.216Z,5.30
2022-10-12T11:26:26.576Z,7.10
2022-10-12T11:30:23.413Z,5.10
2022-10-12T11:33:45.840Z,2.90
2022-10-12T11:37:30.068Z,3.30
2022-10-12T11:41:31.037Z,5.60
2022-10-12T11:44:48.796Z,8.40
2022-10-12T11:49:11.964Z,7.40
2022-10-12T11:52:54.681Z,7.50
2022-10-12T11:56:29.503Z,6.80
2022-10-12T11:59:59.254Z,3.10
2022-10-12T12:03:45.706Z,4.50
2022-10-12T12:07:45.767Z,5.80
2022-10-12T12:11:29.796Z,5.50
2022-10-12T12:14:53.776Z,4.60
2022-10-12T12:18:31.686Z,3.70
2022-10-12T12:22:31.907Z,4.70
2022-10-12T12:26:15.842Z,3.20
2022-10-12T12:29:53.701Z,3.00
2022-10-12T12:33:27.264Z,2.30
2022-10-12T12:37:22.217Z,2.90
2022-10-12T12:41:02.683Z,9.30
2022-10-12T12:44:44.770Z,2.80
2022-10-12T12:48:10.734Z,3.70
2022-10-12T12:51:44.918Z,4.30
2022-10-12T12:55:40.688Z,7.10
2022-10-12T12:59:33.119Z,3.80
2022-10-12T13:03:03.522Z,7.60
2022-10-12T13:07:06.827Z,7.70
2022-10-12T13:10:51.190Z,4.10
2022-10-12T13:14:43.765Z,5.50
2022-10-12T13:18:45.757Z,5.20
2022-10-12T13:22:19.175Z,9.00
2022-10-12T13:26:07.917Z,4.40
2022-10-12T13:29:59.687Z,4.10
2022-10-12T13:33:32.276Z,6.00
2022-10-12T13:37:09.672Z,4.90
2022-10-12T13:40:42.962Z,6.00
2022-10-12T13:44:25.184Z,3.30
2022-10-12T13:47:51.632Z,3.40
2022-10-12T13:51:31.173Z,3.90
2022-10-12T13:55:16.688Z,4.50
2022-10-12T13:58:44.912Z,2.70
2022-10-12T14:02:43.587Z,3.60
2022-10-12T14:06:05.197Z,4.70
2022-10-12T14:09:45.866Z,5.50
2022-10-12T14:13:33.110Z,3.90
2022-10-12T14:16:57.547Z,5.80
2022-10-12T14:20:41.193Z,5.60
2022-10-12T14:24:18.226Z,4.30
2022-10-12T14:27:56.326Z,6.20
2022-10-12T14:31:49.880Z,7.50
2022-10-12T14:35:38.266Z,5.60
2022-10-12T14:39:13.273Z,4.80
2022-10-12T14:42:36.589Z,3.90
2022-10-12T14:46:35.622Z,5.50
2022-10-12T14:49:59.992Z,2.50
2022-10-12T14:53:34.011Z,6.40
2022-10-12T14:57:16.725Z,4.40
2022-10-12T15:01:08.243Z,4.80
2022-10-12T15:04:29.119Z,9.00
2022-10-12T15:08:10.014Z,31.60
2022-10-12T15:11:44.510Z,5.70
2022-10-12T15:15:42.359Z,5.10
2022-10-12T15:19:22.861Z,6.30
2022-10-12T15:22:45.022Z,4.40
2022-10-12T15:26:21.378Z,3.50
2022-10-12T15:30:18.177Z,2.30
2022-10-12T15:33:40.433Z,5.90
2022-10-12T15:37:16.960Z,4.20
2022-10-12T15:40:58.064Z,6.90
2022-10-12T15:44:50.628Z,2.50
2022-10-12T15:48:11.315Z,2.00
2022-10-12T15:52:10.747Z,4.40
2022-10-12T15:55:34.418Z,2.90
2022-10-12T15:59:28.198Z,4.60
2022-10-12T16:03:14.565Z,7.40
2022-10-12T16:06:54.046Z,4.70
2022-10-12T16:10:16.804Z,3.40
2022-10-12T16:14:13.879Z,5.80
2022-10-12T16:17:53.692Z,8.30
2022-10-12T16:21:32.947Z,4.80
2022-10-12T16:24:53.550Z,4.40
2022-10-12T16:28:50.109Z,5.60
2022-10-12T16:32:11.492Z,4.80
2022-10-12T16:35:48.929Z,5.00
2022-10-12T16:39:45.616Z,7.40
2022-10-12T16:43:06.635Z,6.10
2022-10-12T16:46:44.442Z,5.90
2022-10-12T16:50:40.654Z,7.80
2022-10-12T16:54:01.538Z,9.90
2022-10-12T16:57:58.015Z,7.90
2022-10-12T17:01:18.663Z,10.20
2022-10-12T17:05:14.894Z,11.90
2022-10-12T17:08:36.875Z,8.00
2022-10-12T17:12:13.659Z,6.10
2022-10-12T17:16:28.692Z,7.40
2022-10-12T17:19:49.465Z,8.70
2022-10-12T17:23:45.956Z,8.30
2022-10-12T17:27:08.695Z,7.40
2022-10-12T17:31:07.931Z,10.50
2022-10-12T17:34:34.537Z,11.00
2022-10-12T17:38:08.846Z,8.80
2022-10-12T17:41:47.155Z,6.60
2022-10-12T17:45:24.073Z,7.80
2022-10-12T17:49:03.713Z,10.90
2022-10-12T17:52:39.774Z,9.30
2022-10-12T17:56:36.298Z,8.30
2022-10-12T17:59:57.182Z,6.90
2022-10-12T18:03:36.899Z,11.60
2022-10-12T18:07:13.780Z,9.80
2022-10-12T18:11:09.393Z,10.70
2022-10-12T18:14:29.950Z,10.40
2022-10-12T18:18:10.526Z,11.80
2022-10-12T18:21:45.404Z,6.80
2022-10-12T18:25:23.107Z,8.10
2022-10-12T18:29:01.973Z,9.40
2022-10-12T18:32:38.373Z,9.50
2022-10-12T18:36:18.447Z,11.40
2022-10-12T18:39:53.831Z,9.60
2022-10-12T18:43:32.633Z,8.50
2022-10-12T18:47:12.198Z,9.40
2022-10-12T18:51:08.923Z,13.20
2022-10-12T18:54:29.564Z,7.10
2022-10-12T18:58:12.673Z,8.20
2022-10-12T19:01:45.501Z,11.60
2022-10-12T19:05:41.379Z,7.70
2022-10-12T19:09:20.639Z,11.90
2022-10-12T19:12:45.496Z,19.00
2022-10-12T19:16:37.370Z,12.80
2022-10-12T19:20:01.876Z,9.00
2022-10-12T19:23:35.505Z,14.80
2022-10-12T19:27:13.135Z,11.40
2022-10-12T19:30:51.687Z,16.60
2022-10-12T19:34:28.952Z,14.60
2022-10-12T19:38:25.700Z,9.80
2022-10-12T19:42:05.299Z,13.50
2022-10-12T19:45:26.059Z,12.70
2022-10-12T19:49:22.664Z,15.80
2022-10-12T19:52:50.416Z,12.90
2022-10-12T19:56:34.043Z,14.90
2022-10-12T19:59:58.260Z,13.30
2022-10-12T20:03:38.558Z,13.90
2022-10-12T20:07:13.737Z,13.10
2022-10-12T20:10:52.391Z,14.00
2022-10-12T20:14:31.070Z,15.20
2022-10-12T20:18:29.041Z,12.60
2022-10-12T20:21:49.416Z,13.90
2022-10-12T20:25:27.342Z,14.80
2022-10-12T20:29:23.594Z,13.80
2022-10-12T20:32:44.082Z,17.70
2022-10-12T20:36:24.338Z,23.40
2022-10-12T20:39:59.473Z,20.40
2022-10-12T20:43:40.465Z,22.70
2022-10-12T20:47:14.760Z,18.40
2022-10-12T20:50:52.384Z,16.40
2022-10-12T20:54:30.458Z,27.40
2022-10-12T20:58:07.728Z,32.10
2022-10-12T21:01:45.739Z,35.60
2022-10-12T21:05:23.128Z,36.40
2022-10-12T21:09:01.155Z,36.20
2022-10-12T21:12:38.442Z,40.00
2022-10-12T21:16:19.347Z,37.10
2022-10-12T21:19:53.921Z,28.50
2022-10-12T21:23:31.546Z,26.80
2022-10-12T21:27:09.072Z,23.10
2022-10-12T21:31:12.114Z,24.00
2022-10-12T21:34:52.982Z,22.40
2022-10-12T21:38:13.613Z,20.80
2022-10-12T21:42:09.995Z,15.20
2022-10-12T21:45:49.162Z,19.50
2022-10-12T21:49:10.835Z,14.90
2022-10-12T21:52:50.140Z,19.70
2022-10-12T21:56:29.790Z,19.90
2022-10-12T22:00:04.599Z,17.40
2022-10-12T22:04:12.810Z,24.00
2022-10-12T22:07:33.716Z,21.50
2022-10-12T22:11:12.798Z,16.10
2022-10-12T22:14:49.237Z,17.00
2022-10-12T22:18:26.662Z,17.50
2022-10-12T22:22:04.782Z,18.40
2022-10-12T22:25:42.256Z,12.80
2022-10-12T22:29:38.814Z,14.40
2022-10-12T22:32:59.388Z,16.10
2022-10-12T22:36:37.149Z,18.60
2022-10-12T22:40:14.955Z,23.30
2022-10-12T22:44:11.407Z,19.20
2022-10-12T22:47:32.230Z,19.40
2022-10-12T22:51:14.898Z,21.60
2022-10-12T22:54:47.949Z,20.00
2022-10-12T22:58:25.809Z,17.90
2022-10-12T23:02:03.503Z,14.10
2022-10-12T23:05:59.706Z,20.00
2022-10-12T23:09:20.870Z,13.30
2022-10-12T23:12:58.516Z,17.20
2022-10-12T23:16:54.966Z,18.00
2022-10-12T23:20:18.088Z,17.00
2022-10-12T23:23:54.355Z,13.60
2022-10-12T23:27:50.762Z,14.10
2022-10-12T23:31:30.950Z,15.30
2022-10-12T23:35:10.852Z,17.50
2022-10-12T23:38:33.057Z,13.50
2022-10-12T23:42:27.958Z,13.60
2022-10-12T23:45:48.565Z,14.00
2022-10-12T23:49:26.194Z,14.50
2022-10-12T23:53:03.882Z,20.50
2022-10-12T23:57:00.501Z,20.40
